createdAt,value
2022-11-29T00:05:08.380Z,94.92
2022-11-29T00:33:59.031Z,94.65
2022-11-29T01:02:48.266Z,94.1
2022-11-29T01:31:38.772Z,94.01
2022-11-29T02:00:34.111Z,94.86
2022-11-29T02:29:19.296Z,95
2022-11-29T02:58:18.563Z,94.89
2022-11-29T03:27:08.833Z,95.06
2022-11-29T03:56:03.479Z,95.07
2022-11-29T04:24:48.255Z,95.25
2022-11-29T04:53:39.857Z,95.61
2022-11-29T05:22:32.124Z,96.46
2022-11-29T05:51:17.383Z,96.47
2022-11-29T06:19:45.183Z,97.18
2022-11-29T06:48:16.950Z,96.85
2022-11-29T07:17:09.120Z,97.24
2022-11-29T07:45:46.216Z,97.4
2022-11-29T08:14:07.988Z,99.07
2022-11-29T08:42:46.928Z,97.32
2022-11-29T09:11:15.720Z,97.34
2022-11-29T09:39:53.362Z,96.14
2022-11-29T10:08:45.937Z,97.28
2022-11-29T10:37:21.524Z,98.68
2022-11-29T11:06:17.707Z,97.45
2022-11-29T11:34:54.822Z,97.76
2022-11-29T12:03:21.425Z,98.29
2022-11-29T12:32:06.841Z,95.89
2022-11-29T13:00:45.276Z,93.22
2022-11-29T13:29:33.785Z,92.74
2022-11-29T13:58:21.087Z,91.89
2022-11-29T14:26:41.101Z,94.74
2022-11-29T14:55:00.835Z,95.13
2022-11-29T15:23:32.777Z,95.42
2022-11-29T15:52:02.975Z,94.79
2022-11-29T16:20:30.974Z,95.27
2022-11-29T16:49:02.827Z,95.72
2022-11-29T17:17:38.209Z,95.69
2022-11-29T17:46:35.409Z,96.04
2022-11-29T18:15:12.871Z,97.33
2022-11-29T18:43:34.477Z,97.89
2022-11-29T19:12:10.205Z,97.37
2022-11-29T19:40:42.816Z,96.89
2022-11-29T20:08:50.680Z,97.01
2022-11-29T20:37:20.503Z,98.54
2022-11-29T21:05:54.315Z,97.87
2022-11-29T21:34:27.198Z,99.45
2022-11-29T22:03:16.269Z,98.42
2022-11-29T22:31:30.257Z,98.16
2022-11-29T23:00:00.170Z,97.97
2022-11-29T23:28:42.351Z,98.04
2022-11-29T23:57:22.788Z,98.46
